METAR (acronimo di METeorological Air Report) è un messaggio meteo emesso nella maggior parte dei casi in ambito aeroportuale

SVMI - Caracas Simón Bolívar International Airport, Venezuela
Ultimo Aggiornamento: Domenica 27 Settembre 2020 18:02 CEST
Sereno
Sereno
 Wind from Nord-Nord-Est
Vento: Nord-Nord-Est 9 km/h
Barometro: 1013 hPa
Nuvole: Sereno
2020/09/27 16:02 SVMI 271602Z AUTO 03005KT NCD ///// Q1013
SKBO - Bogotá El Dorado International Airport, Colombia
Ultimo Aggiornamento: Domenica 27 Settembre 2020 18:00 CEST
Prevalentemente Nuvoloso
Prevalentemente Nuvoloso
 Wind from Nord-Nord-Est
Vento: Nord-Nord-Est 9 km/h
Temperatura: 18°C
Punto di Rugiada: 9°C
Umidità: 56%
Barometro: 1027.8 hPa
Nuvole: Prevalentemente Nuvoloso
Visibilità: 10 km
Nuvole nel Dettaglio: Prevalentemente Nuvoloso 610 m
2020/09/27 16:00 SKBO 271600Z 02005KT 9999 BKN020 18/09 A3035 NOSIG
TFFF - Fort-de-France Martinique Aimé Césaire International Airport, Martinique
Ultimo Aggiornamento: Domenica 27 Settembre 2020 18:00 CEST
Temporale
Temporale
 Wind from Est-Nord-Est
Vento: Est-Nord-Est 7 km/h
Temperatura: 27°C
Heat Index: 31°C
Punto di Rugiada: 25°C
Umidità: 89%
Barometro: 1011 hPa
Nuvole: Temporale
Visibilità: 10 km
2020/09/27 16:00 TFFF 271600Z AUTO 06004KT 030V090 9999 ///CB 27/25 Q1011 TEMPO VRB20G30KT 1200 TSRA SCT007 BKN012CB
 
SEQM - Quito Mariscal Sucre International Airport, Ecuador
Ultimo Aggiornamento: Domenica 27 Settembre 2020 18:00 CEST
Qualche Nuvola
Qualche Nuvola
 Wind from Ovest-Nord-Ovest
Vento: Ovest-Nord-Ovest 9 km/h
Temperatura: 23°C
Punto di Rugiada: 5°C
Umidità: 31%
Barometro: 1026 hPa
Nuvole: Qualche Nuvola
Visibilità: 10 km
Nuvole nel Dettaglio: Qualche Nuvola 1006 m
2020/09/27 16:00 SEQM 271600Z 30005KT 9999 FEW033 23/05 Q1026 NOSIG RMK A3030
SEGS - Baltra Island, Galápagos, Ecuador
Ultimo Aggiornamento: Domenica 27 Settembre 2020 18:00 CEST

 
Visibilità: 3 km
2020/09/27 16:00 SEGS 271600 16017KT 9999 FEW020 BKN070 23/17 Q1013 A2994
SPJC - Lima Jorge Chvez International Airport, Peru
Ultimo Aggiornamento: Domenica 27 Settembre 2020 18:00 CEST
Nuvoloso
Nuvoloso
 Wind from Ovest-Sud-Ovest
Vento: Ovest-Sud-Ovest 6 km/h
Temperatura: 17°C
Punto di Rugiada: 14°C
Umidità: 83%
Barometro: 1015 hPa
Nuvole: Nuvoloso
Visibilità: 8 km
Nuvole nel Dettaglio: Nuvoloso 305 m
2020/09/27 16:00 SPJC 271600Z 24003KT 160V320 8000 OVC010 17/14 Q1015 NOSIG RMK PP000
 
SLLP - La Paz El Alto International Airport, Bolivia
Ultimo Aggiornamento: Domenica 27 Settembre 2020 18:00 CEST
Parzialmente Nuvoloso
Parzialmente Nuvoloso
 Wind from Est-Nord-Est
Vento: Est-Nord-Est 13 km/h
Temperatura: 12°C
Punto di Rugiada: 0°C
Umidità: 44%
Barometro: 1036 hPa
Nuvole: Parzialmente Nuvoloso
Visibilità: 10 km
Nuvole nel Dettaglio: Parzialmente Nuvoloso 518 m
Qualche Nuvola 610 m
Parzialmente Nuvoloso 6096 m
2020/09/27 16:00 SLLP 271600Z 06007KT 9999 SCT017 FEW020CB SCT200 12/00 Q1036
SBBR - Brasilia International Airport, Brazil
Ultimo Aggiornamento: Domenica 27 Settembre 2020 18:00 CEST
Parzialmente Nuvoloso
Parzialmente Nuvoloso
 Wind from varies
Vento: variabile 9 km/h
Temperatura: 32°C
Punto di Rugiada: 8°C
Umidità: 22%
Barometro: 1018 hPa
Nuvole: Parzialmente Nuvoloso
Visibilità: 10 km
Nuvole nel Dettaglio: Parzialmente Nuvoloso 1372 m
2020/09/27 16:00 SBBR 271600Z VRB05KT 9999 SCT045 32/08 Q1018
SCEL - Santiago Comodoro Arturo Merino Benitez International Airport, Chile
Ultimo Aggiornamento: Domenica 27 Settembre 2020 18:00 CEST
Sereno
Sereno
 Wind from Sud-Sud-Ovest
Vento: Sud-Sud-Ovest 7 km/h
Temperatura: 18°C
Punto di Rugiada: 4°C
Umidità: 40%
Barometro: 1019 hPa
Condizioni: Sereno
Visibilità: superiore a 10 km
2020/09/27 16:00 SCEL 271600Z 21004KT 160V270 CAVOK 18/04 Q1019 NOSIG
 
SCCI - Punta Arenas Presidente Carlos Ibañez del Campo International Airport, Chile
Ultimo Aggiornamento: Domenica 27 Settembre 2020 18:00 CEST
Nuvoloso
Nuvoloso
 Wind from Nord-Nord-Est
Vento: Nord-Nord-Est 19 km/h
Temperatura: 7°C
Wind Chill: 4°C
Punto di Rugiada: 1°C
Umidità: 66%
Barometro: 1000 hPa
Nuvole: Nuvoloso
Visibilità: 10 km
Nuvole nel Dettaglio: Qualche Nuvola 1372 m
Nuvoloso 2134 m
2020/09/27 16:00 SCCI 271600Z 03010KT 9999 FEW045 OVC070 07/01 Q1000 NOSIG
SCIP - Easter Island Mataveri International Airport, Chile
Ultimo Aggiornamento: Domenica 27 Settembre 2020 18:00 CEST
Parzialmente Nuvoloso
Parzialmente Nuvoloso
 Wind from Est-Sud-Est
Vento: Est-Sud-Est 24 km/h
Temperatura: 19°C
Punto di Rugiada: 14°C
Umidità: 73%
Barometro: 1028 hPa
Nuvole: Parzialmente Nuvoloso
Visibilità: 10 km
Nuvole nel Dettaglio: Parzialmente Nuvoloso 762 m
2020/09/27 16:00 SCIP 271600Z 11013KT 9999 SCT025 19/14 Q1028 NOSIG
SAEZ - Buenos Aires Ministro Pistarini International Airport, Argentina
Ultimo Aggiornamento: Domenica 27 Settembre 2020 18:00 CEST
Nuvoloso
Nuvoloso
 Wind from Ovest
Vento: Ovest 26 km/h
Temperatura: 14°C
Punto di Rugiada: 12°C
Umidità: 88%
Barometro: 1005 hPa
Nuvole: Nuvoloso
Visibilità: 10 km
Nuvole nel Dettaglio: Prevalentemente Nuvoloso 396 m
Nuvoloso 610 m
2020/09/27 16:00 SAEZ 271600Z 27014KT 9999 BKN013 OVC020 14/12 Q1005 NOSIG
 
SAZM - Mar del Plata Astor Piazzolla International Airport, Argentina
Ultimo Aggiornamento: Domenica 27 Settembre 2020 18:00 CEST
Bruma, Nuvoloso
Bruma, Nuvoloso
 Wind from Sud
Vento: Sud 26 km/h
Temperatura: 11°C
Punto di Rugiada: 11°C
Umidità: 100%
Barometro: 1003 hPa
Condizioni: Bruma
Nuvole: Nuvoloso
Visibilità: 4 km
Nuvole nel Dettaglio: Nuvoloso 213 m
2020/09/27 16:00 SAZM 271600Z 18014KT 4000 BR OVC007 11/11 Q1003
SAWH - Ushuaia-Malvinas Argentinas International Airport, Argentina
Ultimo Aggiornamento: Domenica 27 Settembre 2020 18:00 CEST
Acquazzoni nelle vicinanze, Nuvoloso
Acquazzoni nelle vicinanze, Nuvoloso
 Wind from Nord-Ovest
Vento: Nord-Ovest 24 km/h, Raffica: 43 km/h
Temperatura: 6°C
Wind Chill: 2°C
Punto di Rugiada: 1°C
Umidità: 71%
Barometro: 999 hPa
Condizioni: Acquazzoni nelle vicinanze
Nuvole: Nuvoloso
Visibilità: 10 km
Nuvole nel Dettaglio: Parzialmente Nuvoloso 1067 m
Prevalentemente Nuvoloso 1219 m
Nuvoloso 2438 m
2020/09/27 16:00 SAWH 271600Z 32013G23KT 9999 VCSH SCT035 BKN040 OVC080 06/01 Q0999
EGYP - Stanley RAF Mount Pleasant, Falkland Islands
Ultimo Aggiornamento: Domenica 27 Settembre 2020 17:50 CEST
Qualche Nuvola
Qualche Nuvola
 Wind from Ovest
Vento: Ovest 26 km/h
Temperatura: 10°C
Wind Chill: 7°C
Punto di Rugiada: 0°C
Umidità: 50%
Barometro: 1011 hPa
Nuvole: Qualche Nuvola
Visibilità: 10 km
Nuvole nel Dettaglio: Qualche Nuvola 1219 m
2020/09/27 15:50 EGYP 271550Z 27014KT 9999 FEW040 10/M00 Q1011 NOSIG